LiveATC.Net - Listen to live air traffic control over the Internet!

ICAO: KHUF  IATA: HUF   Airport: Terre Haute International Airport-Hulman Field
City: Terre Haute   State/Province: Indiana
Country: United States   Continent: North America
KHUF METAR Weather: KHUF 240253Z 27005KT 10SM CLR 16/09 A3007 RMK AO2 SLP182 T01560089 53017
KHUF Flight Activity (FlightAware)
KHUF Airport Info   (AirNav) (iFlightPlanner)
KHUF VFR Sectional Chart   (iFlightPlanner) 
KHUF IFR Low Chart   (iFlightPlanner) 
KHUF Gnd/Twr/App
Feed Status: UP   Listeners: 0
Listen right in your browser - requires Flash (in browser, requires Flash)
Click here to listen with your own player (launches your MP3 player)
KHUF Gnd/Twr/App Audio Archives
Hulman Approach125.450
Hulman Ground/Clearance121.600
Hulman Tower134.725
Indianapolis Center (Sector 35 Terre Haute Low)132.200
Indianapolis Center (Sector 80 King High)134.175


Unauthorized use prohibited. See Terms of Service

Find LiveATC Audio Streams

Airport/ARTCC Code

(e.g., 124.400, 128.75)
Site-wide search

Browse LiveATC Feeds
LiveATC Coverage Map
Top 50 LiveATC Feeds
Bad Weather Areas

Offer a LiveATC Feed
Press Inquiries

LiveATC on iPhone
LiveATC on Android

Windows Phone
Windows 8/10

LiveATC Mobile
(Mobile browser)

ATC Audio Archives
Interesting Recordings

LiveATC Forums

Home Page
Make a Donation
LiveATC Store

Terms of Use
Privacy Policy

Canadian Air Freqs


FAA Airport Status
Nat'l Airspace Status
Arrival Demand Charts

Server Software By: